sensor_id;sensor_type;location;lat;lon;timestamp;temperature;humidity
74934;DHT22;63499;53.232;7.492;2023-03-01T00:01:23;1.70;99.90
74934;DHT22;63499;53.232;7.492;2023-03-01T00:03:49;1.70;99.90
74934;DHT22;63499;53.232;7.492;2023-03-01T00:06:16;1.60;99.90
74934;DHT22;63499;53.232;7.492;2023-03-01T00:08:42;1.60;99.90
74934;DHT22;63499;53.232;7.492;2023-03-01T00:13:34;1.40;99.90
74934;DHT22;63499;53.232;7.492;2023-03-01T00:16:02;1.40;99.90
74934;DHT22;63499;53.232;7.492;2023-03-01T00:18:31;1.40;99.90
74934;DHT22;63499;53.232;7.492;2023-03-01T00:20:57;1.30;99.90
74934;DHT22;63499;53.232;7.492;2023-03-01T00:23:24;1.30;99.90
74934;DHT22;63499;53.232;7.492;2023-03-01T00:25:50;1.40;99.90
74934;DHT22;63499;53.232;7.492;2023-03-01T00:28:16;1.30;99.90
74934;DHT22;63499;53.232;7.492;2023-03-01T00:30:43;1.30;99.90
74934;DHT22;63499;53.232;7.492;2023-03-01T00:33:09;1.30;99.90
74934;DHT22;63499;53.232;7.492;2023-03-01T00:35:35;1.30;99.90
74934;DHT22;63499;53.232;7.492;2023-03-01T00:38:01;1.40;99.90
74934;DHT22;63499;53.232;7.492;2023-03-01T00:40:28;1.40;99.90
74934;DHT22;63499;53.232;7.492;2023-03-01T00:42:54;1.30;99.90
74934;DHT22;63499;53.232;7.492;2023-03-01T00:45:21;1.30;99.90
74934;DHT22;63499;53.232;7.492;2023-03-01T00:47:48;1.30;99.90
74934;DHT22;63499;53.232;7.492;2023-03-01T00:50:14;1.30;99.90
74934;DHT22;63499;53.232;7.492;2023-03-01T00:52:41;1.30;99.90
74934;DHT22;63499;53.232;7.492;2023-03-01T00:55:07;1.30;99.90
74934;DHT22;63499;53.232;7.492;2023-03-01T00:57:33;1.20;99.90
74934;DHT22;63499;53.232;7.492;2023-03-01T01:00:00;1.20;99.90
74934;DHT22;63499;53.232;7.492;2023-03-01T01:02:26;1.20;99.90
74934;DHT22;63499;53.232;7.492;2023-03-01T01:04:52;1.20;99.90
74934;DHT22;63499;53.232;7.492;2023-03-01T01:07:19;1.20;99.90
74934;DHT22;63499;53.232;7.492;2023-03-01T01:09:48;1.20;99.90
74934;DHT22;63499;53.232;7.492;2023-03-01T01:12:14;1.20;99.90
74934;DHT22;63499;53.232;7.492;2023-03-01T01:14:40;1.20;99.90
74934;DHT22;63499;53.232;7.492;2023-03-01T01:17:07;1.10;99.90
74934;DHT22;63499;53.232;7.492;2023-03-01T01:19:35;1.10;99.90
74934;DHT22;63499;53.232;7.492;2023-03-01T01:22:04;1.10;99.90
74934;DHT22;63499;53.232;7.492;2023-03-01T01:24:31;1.10;99.90
74934;DHT22;63499;53.232;7.492;2023-03-01T01:26:57;1.10;99.90
74934;DHT22;63499;53.232;7.492;2023-03-01T01:29:23;1.10;99.90
74934;DHT22;63499;53.232;7.492;2023-03-01T01:31:49;1.00;99.90
74934;DHT22;63499;53.232;7.492;2023-03-01T01:34:16;1.10;99.90
74934;DHT22;63499;53.232;7.492;2023-03-01T01:36:43;1.00;99.90
74934;DHT22;63499;53.232;7.492;2023-03-01T01:39:09;1.00;99.90
74934;DHT22;63499;53.232;7.492;2023-03-01T01:41:39;1.00;99.90
74934;DHT22;63499;53.232;7.492;2023-03-01T01:46:49;1.00;99.90
74934;DHT22;63499;53.232;7.492;2023-03-01T01:49:21;1.00;99.90
74934;DHT22;63499;53.232;7.492;2023-03-01T01:51:49;1.00;99.90
74934;DHT22;63499;53.232;7.492;2023-03-01T01:54:22;1.00;99.90
74934;DHT22;63499;53.232;7.492;2023-03-01T01:56:58;1.00;99.90
74934;DHT22;63499;53.232;7.492;2023-03-01T01:59:26;1.00;99.90
74934;DHT22;63499;53.232;7.492;2023-03-01T02:01:55;1.00;99.90
74934;DHT22;63499;53.232;7.492;2023-03-01T02:04:22;0.90;99.90
74934;DHT22;63499;53.232;7.492;2023-03-01T02:06:49;0.90;99.90
74934;DHT22;63499;53.232;7.492;2023-03-01T02:09:17;0.90;99.90
74934;DHT22;63499;53.232;7.492;2023-03-01T02:11:45;0.70;99.90
74934;DHT22;63499;53.232;7.492;2023-03-01T02:14:14;0.60;99.90
74934;DHT22;63499;53.232;7.492;2023-03-01T02:16:40;0.60;99.90
74934;DHT22;63499;53.232;7.492;2023-03-01T02:19:07;0.50;99.90
74934;DHT22;63499;53.232;7.492;2023-03-01T02:26:42;0.30;99.90
74934;DHT22;63499;53.232;7.492;2023-03-01T02:29:10;0.30;99.90
74934;DHT22;63499;53.232;7.492;2023-03-01T02:31:37;0.30;99.90
74934;DHT22;63499;53.232;7.492;2023-03-01T02:34:13;0.30;99.90
74934;DHT22;63499;53.232;7.492;2023-03-01T02:36:41;0.20;99.90
74934;DHT22;63499;53.232;7.492;2023-03-01T02:39:10;0.20;99.90
74934;DHT22;63499;53.232;7.492;2023-03-01T02:41:41;0.20;99.90
74934;DHT22;63499;53.232;7.492;2023-03-01T02:44:09;0.20;99.90
74934;DHT22;63499;53.232;7.492;2023-03-01T02:46:41;0.20;99.90
74934;DHT22;63499;53.232;7.492;2023-03-01T02:49:27;0.20;99.90
74934;DHT22;63499;53.232;7.492;2023-03-01T02:52:01;0.10;99.90
74934;DHT22;63499;53.232;7.492;2023-03-01T02:54:33;0.20;99.90
74934;DHT22;63499;53.232;7.492;2023-03-01T02:57:02;0.20;99.90
74934;DHT22;63499;53.232;7.492;2023-03-01T02:59:31;0.20;99.90
74934;DHT22;63499;53.232;7.492;2023-03-01T03:02:00;0.20;99.90
74934;DHT22;63499;53.232;7.492;2023-03-01T03:04:26;0.20;99.90
74934;DHT22;63499;53.232;7.492;2023-03-01T03:06:52;0.10;99.90
74934;DHT22;63499;53.232;7.492;2023-03-01T03:09:19;0.10;99.90
74934;DHT22;63499;53.232;7.492;2023-03-01T03:11:45;0.20;99.90
74934;DHT22;63499;53.232;7.492;2023-03-01T03:14:12;0.20;99.90
74934;DHT22;63499;53.232;7.492;2023-03-01T03:16:44;0.30;99.90
74934;DHT22;63499;53.232;7.492;2023-03-01T03:19:11;0.20;99.90
74934;DHT22;63499;53.232;7.492;2023-03-01T03:21:37;0.20;99.90
74934;DHT22;63499;53.232;7.492;2023-03-01T03:24:06;0.10;99.90
74934;DHT22;63499;53.232;7.492;2023-03-01T03:26:32;0.00;99.90
74934;DHT22;63499;53.232;7.492;2023-03-01T03:28:58;0.10;99.90
74934;DHT22;63499;53.232;7.492;2023-03-01T03:31:24;0.10;99.90
74934;DHT22;63499;53.232;7.492;2023-03-01T03:33:50;0.10;99.90
74934;DHT22;63499;53.232;7.492;2023-03-01T03:36:17;0.00;99.90
74934;DHT22;63499;53.232;7.492;2023-03-01T03:38:44;0.00;99.90
74934;DHT22;63499;53.232;7.492;2023-03-01T03:41:12;0.10;99.90
74934;DHT22;63499;53.232;7.492;2023-03-01T03:43:39;0.10;99.90
74934;DHT22;63499;53.232;7.492;2023-03-01T03:46:06;0.10;99.90
74934;DHT22;63499;53.232;7.492;2023-03-01T03:48:37;0.10;99.90
74934;DHT22;63499;53.232;7.492;2023-03-01T03:51:03;0.20;99.90
74934;DHT22;63499;53.232;7.492;2023-03-01T03:53:34;0.20;99.90
74934;DHT22;63499;53.232;7.492;2023-03-01T03:56:01;0.30;99.90
74934;DHT22;63499;53.232;7.492;2023-03-01T03:58:27;0.30;99.90
74934;DHT22;63499;53.232;7.492;2023-03-01T04:00:54;0.30;99.90
74934;DHT22;63499;53.232;7.492;2023-03-01T04:03:24;0.30;99.90
74934;DHT22;63499;53.232;7.492;2023-03-01T04:05:50;0.40;99.90
74934;DHT22;63499;53.232;7.492;2023-03-01T04:08:20;0.40;99.90
74934;DHT22;63499;53.232;7.492;2023-03-01T04:10:48;0.40;99.90
74934;DHT22;63499;53.232;7.492;2023-03-01T04:13:16;0.40;99.90
74934;DHT22;63499;53.232;7.492;2023-03-01T04:15:42;0.40;99.90
74934;DHT22;63499;53.232;7.492;2023-03-01T04:18:12;0.40;99.90
74934;DHT22;63499;53.232;7.492;2023-03-01T04:20:38;0.40;99.90
74934;DHT22;63499;53.232;7.492;2023-03-01T04:23:05;0.40;99.90
74934;DHT22;63499;53.232;7.492;2023-03-01T04:25:49;0.40;99.90
74934;DHT22;63499;53.232;7.492;2023-03-01T04:28:20;0.30;99.90
74934;DHT22;63499;53.232;7.492;2023-03-01T04:30:46;0.40;99.90
74934;DHT22;63499;53.232;7.492;2023-03-01T04:33:12;0.40;99.90
74934;DHT22;63499;53.232;7.492;2023-03-01T04:35:39;0.30;99.90
74934;DHT22;63499;53.232;7.492;2023-03-01T04:38:06;0.30;99.90
74934;DHT22;63499;53.232;7.492;2023-03-01T04:40:32;0.20;99.90
74934;DHT22;63499;53.232;7.492;2023-03-01T04:42:58;0.20;99.90
74934;DHT22;63499;53.232;7.492;2023-03-01T04:45:24;0.20;99.90
74934;DHT22;63499;53.232;7.492;2023-03-01T04:47:50;0.10;99.90
74934;DHT22;63499;53.232;7.492;2023-03-01T04:50:18;0.10;99.90
74934;DHT22;63499;53.232;7.492;2023-03-01T04:52:49;0.10;99.90
74934;DHT22;63499;53.232;7.492;2023-03-01T04:55:15;0.10;99.90
74934;DHT22;63499;53.232;7.492;2023-03-01T04:57:41;0.10;99.90
74934;DHT22;63499;53.232;7.492;2023-03-01T05:00:08;0.10;99.90
74934;DHT22;63499;53.232;7.492;2023-03-01T05:02:53;0.10;99.90
74934;DHT22;63499;53.232;7.492;2023-03-01T05:05:24;0.20;99.90
74934;DHT22;63499;53.232;7.492;2023-03-01T05:07:52;0.20;99.90
74934;DHT22;63499;53.232;7.492;2023-03-01T05:10:18;0.20;99.90
74934;DHT22;63499;53.232;7.492;2023-03-01T05:12:44;0.20;99.90
74934;DHT22;63499;53.232;7.492;2023-03-01T05:15:10;0.30;99.90
74934;DHT22;63499;53.232;7.492;2023-03-01T05:17:36;0.30;99.90
74934;DHT22;63499;53.232;7.492;2023-03-01T05:20:02;0.20;99.90
74934;DHT22;63499;53.232;7.492;2023-03-01T05:22:33;0.20;99.90
74934;DHT22;63499;53.232;7.492;2023-03-01T05:24:59;0.10;99.90
74934;DHT22;63499;53.232;7.492;2023-03-01T05:27:25;0.10;99.90
74934;DHT22;63499;53.232;7.492;2023-03-01T05:29:52;0.00;99.90
74934;DHT22;63499;53.232;7.492;2023-03-01T05:32:18;-0.10;99.90
74934;DHT22;63499;53.232;7.492;2023-03-01T05:34:44;-0.10;99.90
74934;DHT22;63499;53.232;7.492;2023-03-01T05:37:12;-0.10;99.90
74934;DHT22;63499;53.232;7.492;2023-03-01T05:39:39;-0.10;99.90
74934;DHT22;63499;53.232;7.492;2023-03-01T05:42:05;-0.10;99.90
74934;DHT22;63499;53.232;7.492;2023-03-01T05:44:31;-0.10;99.90
74934;DHT22;63499;53.232;7.492;2023-03-01T05:46:57;-0.20;99.90
74934;DHT22;63499;53.232;7.492;2023-03-01T05:49:23;-0.20;99.90
74934;DHT22;63499;53.232;7.492;2023-03-01T05:51:50;-0.20;99.90
74934;DHT22;63499;53.232;7.492;2023-03-01T05:54:17;-0.30;99.90
74934;DHT22;63499;53.232;7.492;2023-03-01T05:56:43;-0.30;99.90
74934;DHT22;63499;53.232;7.492;2023-03-01T05:59:10;-0.40;99.90
74934;DHT22;63499;53.232;7.492;2023-03-01T06:01:36;-0.30;99.90
74934;DHT22;63499;53.232;7.492;2023-03-01T06:04:03;-0.40;99.90
74934;DHT22;63499;53.232;7.492;2023-03-01T06:06:34;-0.50;99.90
74934;DHT22;63499;53.232;7.492;2023-03-01T06:09:00;-0.50;99.90
74934;DHT22;63499;53.232;7.492;2023-03-01T06:11:26;-0.50;99.90
74934;DHT22;63499;53.232;7.492;2023-03-01T06:13:53;-0.60;99.90
74934;DHT22;63499;53.232;7.492;2023-03-01T06:16:19;-0.60;99.90
74934;DHT22;63499;53.232;7.492;2023-03-01T06:18:45;-0.70;99.90
74934;DHT22;63499;53.232;7.492;2023-03-01T06:21:14;-0.70;99.90
74934;DHT22;63499;53.232;7.492;2023-03-01T06:23:40;-0.80;99.90
74934;DHT22;63499;53.232;7.492;2023-03-01T06:26:06;-0.90;99.90
74934;DHT22;63499;53.232;7.492;2023-03-01T06:28:33;-0.90;99.90
74934;DHT22;63499;53.232;7.492;2023-03-01T06:30:59;-0.90;99.90
74934;DHT22;63499;53.232;7.492;2023-03-01T06:33:25;-0.90;99.90
74934;DHT22;63499;53.232;7.492;2023-03-01T06:35:54;-0.90;99.90
74934;DHT22;63499;53.232;7.492;2023-03-01T06:38:20;-0.90;99.90
74934;DHT22;63499;53.232;7.492;2023-03-01T06:40:51;-0.90;99.90
74934;DHT22;63499;53.232;7.492;2023-03-01T06:43:17;-0.90;99.90
74934;DHT22;63499;53.232;7.492;2023-03-01T06:45:43;-0.90;99.90
74934;DHT22;63499;53.232;7.492;2023-03-01T06:48:09;-0.90;99.90
74934;DHT22;63499;53.232;7.492;2023-03-01T06:50:35;-0.90;99.90
74934;DHT22;63499;53.232;7.492;2023-03-01T06:53:03;-0.90;99.90
74934;DHT22;63499;53.232;7.492;2023-03-01T06:55:30;-0.90;99.90
74934;DHT22;63499;53.232;7.492;2023-03-01T06:57:56;-0.90;99.90
74934;DHT22;63499;53.232;7.492;2023-03-01T07:00:23;-0.90;99.90
74934;DHT22;63499;53.232;7.492;2023-03-01T07:02:49;-0.90;99.90
74934;DHT22;63499;53.232;7.492;2023-03-01T07:05:15;-1.00;99.90
74934;DHT22;63499;53.232;7.492;2023-03-01T07:07:42;-1.00;99.90
74934;DHT22;63499;53.232;7.492;2023-03-01T07:10:08;-0.90;99.90
74934;DHT22;63499;53.232;7.492;2023-03-01T07:12:34;-0.80;99.90
74934;DHT22;63499;53.232;7.492;2023-03-01T07:15:01;-0.70;99.90
74934;DHT22;63499;53.232;7.492;2023-03-01T07:17:27;-0.70;99.90
74934;DHT22;63499;53.232;7.492;2023-03-01T07:19:53;-0.70;99.90
74934;DHT22;63499;53.232;7.492;2023-03-01T07:22:19;-0.60;99.90
74934;DHT22;63499;53.232;7.492;2023-03-01T07:24:46;-0.70;99.90
74934;DHT22;63499;53.232;7.492;2023-03-01T07:27:12;-0.60;99.90
74934;DHT22;63499;53.232;7.492;2023-03-01T07:29:38;-0.60;99.90
74934;DHT22;63499;53.232;7.492;2023-03-01T07:32:04;-0.60;99.90
74934;DHT22;63499;53.232;7.492;2023-03-01T07:34:31;-0.50;99.90
74934;DHT22;63499;53.232;7.492;2023-03-01T07:36:57;-0.50;99.90
74934;DHT22;63499;53.232;7.492;2023-03-01T07:39:23;-0.40;99.90
74934;DHT22;63499;53.232;7.492;2023-03-01T07:41:49;-0.40;99.90
74934;DHT22;63499;53.232;7.492;2023-03-01T07:44:22;-0.30;99.90
74934;DHT22;63499;53.232;7.492;2023-03-01T07:46:48;-0.20;99.90
74934;DHT22;63499;53.232;7.492;2023-03-01T07:49:14;-0.10;99.90
74934;DHT22;63499;53.232;7.492;2023-03-01T07:51:40;0.00;99.90
74934;DHT22;63499;53.232;7.492;2023-03-01T07:54:07;0.10;99.90
74934;DHT22;63499;53.232;7.492;2023-03-01T07:56:34;0.20;99.90
74934;DHT22;63499;53.232;7.492;2023-03-01T07:59:00;0.20;99.90
74934;DHT22;63499;53.232;7.492;2023-03-01T08:01:26;0.20;99.90
74934;DHT22;63499;53.232;7.492;2023-03-01T08:03:52;0.30;99.90
74934;DHT22;63499;53.232;7.492;2023-03-01T08:06:18;0.30;99.90
74934;DHT22;63499;53.232;7.492;2023-03-01T08:08:44;0.30;99.90
74934;DHT22;63499;53.232;7.492;2023-03-01T08:11:11;0.20;99.90
74934;DHT22;63499;53.232;7.492;2023-03-01T08:13:37;0.30;99.90
74934;DHT22;63499;53.232;7.492;2023-03-01T08:16:08;0.40;99.90
74934;DHT22;63499;53.232;7.492;2023-03-01T08:18:35;0.50;99.90
74934;DHT22;63499;53.232;7.492;2023-03-01T08:21:04;0.70;99.90
74934;DHT22;63499;53.232;7.492;2023-03-01T08:23:31;0.70;99.90
74934;DHT22;63499;53.232;7.492;2023-03-01T08:26:04;0.90;99.90
74934;DHT22;63499;53.232;7.492;2023-03-01T08:28:32;1.00;99.90
74934;DHT22;63499;53.232;7.492;2023-03-01T08:30:58;1.00;99.90
74934;DHT22;63499;53.232;7.492;2023-03-01T08:33:24;1.10;99.90
74934;DHT22;63499;53.232;7.492;2023-03-01T08:35:53;1.20;99.90
74934;DHT22;63499;53.232;7.492;2023-03-01T08:38:27;1.30;99.90
74934;DHT22;63499;53.232;7.492;2023-03-01T08:40:53;1.30;99.90
74934;DHT22;63499;53.232;7.492;2023-03-01T08:43:19;1.40;99.90
74934;DHT22;63499;53.232;7.492;2023-03-01T08:45:47;1.40;99.90
74934;DHT22;63499;53.232;7.492;2023-03-01T08:48:14;1.50;99.90
74934;DHT22;63499;53.232;7.492;2023-03-01T08:50:39;1.60;99.90
74934;DHT22;63499;53.232;7.492;2023-03-01T08:53:06;1.70;99.90
74934;DHT22;63499;53.232;7.492;2023-03-01T08:55:32;1.80;99.90
74934;DHT22;63499;53.232;7.492;2023-03-01T08:57:58;1.90;99.90
74934;DHT22;63499;53.232;7.492;2023-03-01T09:00:25;1.90;99.90
74934;DHT22;63499;53.232;7.492;2023-03-01T09:02:51;1.90;99.90
74934;DHT22;63499;53.232;7.492;2023-03-01T09:05:17;1.80;99.90
74934;DHT22;63499;53.232;7.492;2023-03-01T09:07:43;1.50;99.90
74934;DHT22;63499;53.232;7.492;2023-03-01T09:10:09;1.40;99.90
74934;DHT22;63499;53.232;7.492;2023-03-01T09:12:35;1.30;99.90
74934;DHT22;63499;53.232;7.492;2023-03-01T09:15:01;1.30;99.90
74934;DHT22;63499;53.232;7.492;2023-03-01T09:17:28;1.30;99.90
74934;DHT22;63499;53.232;7.492;2023-03-01T09:19:54;1.50;99.90
74934;DHT22;63499;53.232;7.492;2023-03-01T09:22:20;1.70;99.90
74934;DHT22;63499;53.232;7.492;2023-03-01T09:24:46;2.00;99.90
74934;DHT22;63499;53.232;7.492;2023-03-01T09:27:14;2.30;99.90
74934;DHT22;63499;53.232;7.492;2023-03-01T09:29:44;2.60;99.90
74934;DHT22;63499;53.232;7.492;2023-03-01T09:32:10;2.80;99.90
74934;DHT22;63499;53.232;7.492;2023-03-01T09:34:36;3.00;99.90
74934;DHT22;63499;53.232;7.492;2023-03-01T09:37:21;3.20;99.90
74934;DHT22;63499;53.232;7.492;2023-03-01T09:39:50;3.50;99.90
74934;DHT22;63499;53.232;7.492;2023-03-01T09:42:16;3.70;99.90
74934;DHT22;63499;53.232;7.492;2023-03-01T09:44:48;3.90;99.90
74934;DHT22;63499;53.232;7.492;2023-03-01T09:47:21;4.10;99.90
74934;DHT22;63499;53.232;7.492;2023-03-01T09:49:56;4.20;99.90
74934;DHT22;63499;53.232;7.492;2023-03-01T09:52:29;4.30;99.90
74934;DHT22;63499;53.232;7.492;2023-03-01T09:54:56;4.50;99.90
74934;DHT22;63499;53.232;7.492;2023-03-01T09:57:30;4.60;99.90
74934;DHT22;63499;53.232;7.492;2023-03-01T10:05:30;5.40;99.90
74934;DHT22;63499;53.232;7.492;2023-03-01T10:10:46;5.90;99.90
74934;DHT22;63499;53.232;7.492;2023-03-01T10:13:37;6.10;99.90
74934;DHT22;63499;53.232;7.492;2023-03-01T10:16:01;6.40;99.90
74934;DHT22;63499;53.232;7.492;2023-03-01T10:18:30;6.50;99.90
74934;DHT22;63499;53.232;7.492;2023-03-01T10:21:02;6.70;99.90
74934;DHT22;63499;53.232;7.492;2023-03-01T10:23:30;6.90;99.90
74934;DHT22;63499;53.232;7.492;2023-03-01T10:30:49;7.00;99.90
74934;DHT22;63499;53.232;7.492;2023-03-01T10:35:44;7.10;99.90
74934;DHT22;63499;53.232;7.492;2023-03-01T10:38:12;7.30;99.90
74934;DHT22;63499;53.232;7.492;2023-03-01T10:40:59;7.40;99.90
74934;DHT22;63499;53.232;7.492;2023-03-01T10:43:25;7.40;99.90
74934;DHT22;63499;53.232;7.492;2023-03-01T10:45:52;7.40;99.90
74934;DHT22;63499;53.232;7.492;2023-03-01T10:50:46;7.70;99.90
74934;DHT22;63499;53.232;7.492;2023-03-01T10:53:31;7.70;99.90
74934;DHT22;63499;53.232;7.492;2023-03-01T10:56:04;7.80;99.90
74934;DHT22;63499;53.232;7.492;2023-03-01T10:58:32;7.90;99.90
74934;DHT22;63499;53.232;7.492;2023-03-01T11:01:01;7.90;99.90
74934;DHT22;63499;53.232;7.492;2023-03-01T11:03:29;8.00;99.90
74934;DHT22;63499;53.232;7.492;2023-03-01T11:06:04;8.10;99.90
74934;DHT22;63499;53.232;7.492;2023-03-01T11:08:41;8.10;99.90
74934;DHT22;63499;53.232;7.492;2023-03-01T11:13:37;8.20;99.90
74934;DHT22;63499;53.232;7.492;2023-03-01T11:16:09;8.00;99.90
74934;DHT22;63499;53.232;7.492;2023-03-01T11:18:37;8.00;99.90
74934;DHT22;63499;53.232;7.492;2023-03-01T11:21:04;8.20;99.90
74934;DHT22;63499;53.232;7.492;2023-03-01T11:23:31;8.40;99.90
74934;DHT22;63499;53.232;7.492;2023-03-01T11:26:02;8.40;99.90
74934;DHT22;63499;53.232;7.492;2023-03-01T11:28:30;8.30;99.90
74934;DHT22;63499;53.232;7.492;2023-03-01T11:31:00;8.50;99.90
74934;DHT22;63499;53.232;7.492;2023-03-01T11:42:13;8.70;99.90
74934;DHT22;63499;53.232;7.492;2023-03-01T11:44:40;8.60;99.90
74934;DHT22;63499;53.232;7.492;2023-03-01T12:07:37;9.40;99.90
74934;DHT22;63499;53.232;7.492;2023-03-01T12:18:20;9.40;99.90
74934;DHT22;63499;53.232;7.492;2023-03-01T12:21:04;9.70;99.90
74934;DHT22;63499;53.232;7.492;2023-03-01T12:37:19;10.60;99.90
74934;DHT22;63499;53.232;7.492;2023-03-01T12:40:03;10.80;99.90
74934;DHT22;63499;53.232;7.492;2023-03-01T12:42:41;11.00;99.90
74934;DHT22;63499;53.232;7.492;2023-03-01T12:50:14;11.10;99.90
74934;DHT22;63499;53.232;7.492;2023-03-01T12:52:44;11.10;99.90
74934;DHT22;63499;53.232;7.492;2023-03-01T12:55:23;11.10;99.90
74934;DHT22;63499;53.232;7.492;2023-03-01T13:00:35;11.00;99.90
74934;DHT22;63499;53.232;7.492;2023-03-01T13:05:42;11.50;99.90
74934;DHT22;63499;53.232;7.492;2023-03-01T13:11:00;11.30;99.90
74934;DHT22;63499;53.232;7.492;2023-03-01T13:13:27;11.30;99.90
74934;DHT22;63499;53.232;7.492;2023-03-01T13:15:54;11.40;99.90
74934;DHT22;63499;53.232;7.492;2023-03-01T13:21:00;11.90;99.90
74934;DHT22;63499;53.232;7.492;2023-03-01T13:23:36;12.00;99.90
74934;DHT22;63499;53.232;7.492;2023-03-01T13:31:05;12.30;99.90
74934;DHT22;63499;53.232;7.492;2023-03-01T13:36:02;12.10;99.90
74934;DHT22;63499;53.232;7.492;2023-03-01T13:41:04;12.10;99.90
74934;DHT22;63499;53.232;7.492;2023-03-01T13:43:37;12.30;99.90
74934;DHT22;63499;53.232;7.492;2023-03-01T13:48:36;12.40;99.90
74934;DHT22;63499;53.232;7.492;2023-03-01T13:51:04;12.30;99.90
74934;DHT22;63499;53.232;7.492;2023-03-01T13:53:36;12.70;99.90
74934;DHT22;63499;53.232;7.492;2023-03-01T13:56:38;13.00;99.90
74934;DHT22;63499;53.232;7.492;2023-03-01T13:59:01;12.90;99.90
74934;DHT22;63499;53.232;7.492;2023-03-01T14:03:54;12.80;99.90
74934;DHT22;63499;53.232;7.492;2023-03-01T14:06:23;13.00;99.90
74934;DHT22;63499;53.232;7.492;2023-03-01T14:08:50;13.10;99.90
74934;DHT22;63499;53.232;7.492;2023-03-01T14:16:16;13.50;99.90
74934;DHT22;63499;53.232;7.492;2023-03-01T14:21:12;13.90;99.60
74934;DHT22;63499;53.232;7.492;2023-03-01T14:23:39;13.80;99.30
74934;DHT22;63499;53.232;7.492;2023-03-01T14:26:07;14.10;99.90
74934;DHT22;63499;53.232;7.492;2023-03-01T14:28:34;14.20;98.70
74934;DHT22;63499;53.232;7.492;2023-03-01T14:31:25;14.30;99.90
74934;DHT22;63499;53.232;7.492;2023-03-01T14:33:54;14.40;98.60
74934;DHT22;63499;53.232;7.492;2023-03-01T14:36:25;14.50;99.20
74934;DHT22;63499;53.232;7.492;2023-03-01T14:38:55;14.30;97.70
74934;DHT22;63499;53.232;7.492;2023-03-01T14:41:22;14.40;98.20
74934;DHT22;63499;53.232;7.492;2023-03-01T14:43:57;14.40;97.30
74934;DHT22;63499;53.232;7.492;2023-03-01T14:46:32;14.30;97.20
74934;DHT22;63499;53.232;7.492;2023-03-01T14:49:06;14.50;98.00
74934;DHT22;63499;53.232;7.492;2023-03-01T14:51:36;14.00;97.20
74934;DHT22;63499;53.232;7.492;2023-03-01T14:54:04;13.40;97.30
74934;DHT22;63499;53.232;7.492;2023-03-01T14:56:42;13.10;99.00
74934;DHT22;63499;53.232;7.492;2023-03-01T14:59:09;13.00;99.60
74934;DHT22;63499;53.232;7.492;2023-03-01T15:01:35;12.80;99.70
74934;DHT22;63499;53.232;7.492;2023-03-01T15:04:01;12.70;99.60
74934;DHT22;63499;53.232;7.492;2023-03-01T15:06:28;12.30;99.10
74934;DHT22;63499;53.232;7.492;2023-03-01T15:08:57;12.10;99.90
74934;DHT22;63499;53.232;7.492;2023-03-01T15:11:27;12.00;99.90
74934;DHT22;63499;53.232;7.492;2023-03-01T15:13:53;11.90;99.90
74934;DHT22;63499;53.232;7.492;2023-03-01T15:16:24;12.00;99.90
74934;DHT22;63499;53.232;7.492;2023-03-01T15:18:51;12.10;99.90
74934;DHT22;63499;53.232;7.492;2023-03-01T15:21:20;12.20;99.90
74934;DHT22;63499;53.232;7.492;2023-03-01T15:23:49;12.40;99.90
74934;DHT22;63499;53.232;7.492;2023-03-01T15:28:50;12.90;99.90
74934;DHT22;63499;53.232;7.492;2023-03-01T15:31:20;13.50;99.90
74934;DHT22;63499;53.232;7.492;2023-03-01T15:33:47;13.90;98.60
74934;DHT22;63499;53.232;7.492;2023-03-01T15:36:30;14.10;97.90
74934;DHT22;63499;53.232;7.492;2023-03-01T15:38:57;14.30;98.10
74934;DHT22;63499;53.232;7.492;2023-03-01T15:41:25;14.30;97.50
74934;DHT22;63499;53.232;7.492;2023-03-01T15:43:52;14.50;96.70
74934;DHT22;63499;53.232;7.492;2023-03-01T15:46:22;15.00;96.70
74934;DHT22;63499;53.232;7.492;2023-03-01T15:48:54;15.20;94.70
74934;DHT22;63499;53.232;7.492;2023-03-01T15:51:23;15.50;95.20
74934;DHT22;63499;53.232;7.492;2023-03-01T15:53:52;16.10;94.30
74934;DHT22;63499;53.232;7.492;2023-03-01T15:56:18;16.40;93.10
74934;DHT22;63499;53.232;7.492;2023-03-01T15:58:44;16.50;92.80
74934;DHT22;63499;53.232;7.492;2023-03-01T16:01:12;16.50;92.70
74934;DHT22;63499;53.232;7.492;2023-03-01T16:03:39;16.20;92.20
74934;DHT22;63499;53.232;7.492;2023-03-01T16:06:05;15.90;92.10
74934;DHT22;63499;53.232;7.492;2023-03-01T16:08:31;15.40;92.20
74934;DHT22;63499;53.232;7.492;2023-03-01T16:10:57;15.20;92.90
74934;DHT22;63499;53.232;7.492;2023-03-01T16:13:23;14.90;93.20
74934;DHT22;63499;53.232;7.492;2023-03-01T16:15:53;14.80;93.60
74934;DHT22;63499;53.232;7.492;2023-03-01T16:18:19;14.70;94.30
74934;DHT22;63499;53.232;7.492;2023-03-01T16:20:45;14.50;94.30
74934;DHT22;63499;53.232;7.492;2023-03-01T16:23:12;13.80;94.70
74934;DHT22;63499;53.232;7.492;2023-03-01T16:25:41;13.20;95.80
74934;DHT22;63499;53.232;7.492;2023-03-01T16:28:08;12.70;96.50
74934;DHT22;63499;53.232;7.492;2023-03-01T16:30:37;12.20;97.40
74934;DHT22;63499;53.232;7.492;2023-03-01T16:33:05;11.70;98.50
74934;DHT22;63499;53.232;7.492;2023-03-01T16:35:33;11.50;99.30
74934;DHT22;63499;53.232;7.492;2023-03-01T16:37:59;11.10;99.90
74934;DHT22;63499;53.232;7.492;2023-03-01T16:40:27;10.70;99.90
74934;DHT22;63499;53.232;7.492;2023-03-01T16:42:54;10.30;99.90
74934;DHT22;63499;53.232;7.492;2023-03-01T16:45:21;9.90;99.90
74934;DHT22;63499;53.232;7.492;2023-03-01T16:47:47;9.60;99.90
74934;DHT22;63499;53.232;7.492;2023-03-01T16:50:13;9.40;99.90
74934;DHT22;63499;53.232;7.492;2023-03-01T16:52:39;9.20;99.90
74934;DHT22;63499;53.232;7.492;2023-03-01T16:55:06;9.00;99.90
74934;DHT22;63499;53.232;7.492;2023-03-01T16:57:36;9.00;99.90
74934;DHT22;63499;53.232;7.492;2023-03-01T17:00:03;8.80;99.90
74934;DHT22;63499;53.232;7.492;2023-03-01T17:02:36;8.60;99.90
74934;DHT22;63499;53.232;7.492;2023-03-01T17:05:03;8.40;99.90
74934;DHT22;63499;53.232;7.492;2023-03-01T17:07:32;8.20;99.90
74934;DHT22;63499;53.232;7.492;2023-03-01T17:10:02;8.20;99.90
74934;DHT22;63499;53.232;7.492;2023-03-01T17:12:29;7.90;99.90
74934;DHT22;63499;53.232;7.492;2023-03-01T17:14:55;7.70;99.90
74934;DHT22;63499;53.232;7.492;2023-03-01T17:17:21;7.60;99.90
74934;DHT22;63499;53.232;7.492;2023-03-01T17:19:47;7.60;99.90
74934;DHT22;63499;53.232;7.492;2023-03-01T17:22:13;7.50;99.90
74934;DHT22;63499;53.232;7.492;2023-03-01T17:24:41;7.50;99.90
74934;DHT22;63499;53.232;7.492;2023-03-01T17:27:07;7.40;99.90
74934;DHT22;63499;53.232;7.492;2023-03-01T17:29:34;7.40;99.90
74934;DHT22;63499;53.232;7.492;2023-03-01T17:32:00;7.30;99.90
74934;DHT22;63499;53.232;7.492;2023-03-01T17:34:27;7.20;99.90
74934;DHT22;63499;53.232;7.492;2023-03-01T17:36:53;7.10;99.90
74934;DHT22;63499;53.232;7.492;2023-03-01T17:39:22;6.90;99.90
74934;DHT22;63499;53.232;7.492;2023-03-01T17:42:00;6.70;99.90
74934;DHT22;63499;53.232;7.492;2023-03-01T17:44:27;6.60;99.90
74934;DHT22;63499;53.232;7.492;2023-03-01T17:46:53;6.50;99.90
74934;DHT22;63499;53.232;7.492;2023-03-01T17:49:19;6.40;99.90